Time;durP1;ratioP1;P1;durP2;ratioP2;P2;SDS_P1;SDS_P2;PMS_P1;PMS_P2;Temp;Humidity;BMP_temperature;BMP_pressure;BME280_temperature;BME280_humidity;BME280_pressure;Samples;Min_cycle;Max_cycle;Signal;HPM_P1;HPM_P2
2023/07/01 00:00:23;;;;;;;13.27;11.90;;;20.60;99.90;;;;;;4987780;28;20226;-73
2023/07/01 00:03:18;;;;;;;13.70;12.40;;;20.40;99.90;;;;;;4996330;28;20219;-73
2023/07/01 00:06:07;;;;;;;13.77;12.25;;;20.30;99.90;;;;;;4984245;28;20234;-74
2023/07/01 00:08:56;;;;;;;14.02;12.07;;;20.30;99.90;;;;;;4978125;28;20239;-73
2023/07/01 00:11:44;;;;;;;13.43;12.15;;;20.40;99.90;;;;;;4975664;28;20839;-72
2023/07/01 00:14:35;;;;;;;14.73;12.77;;;20.60;99.90;;;;;;4978667;28;20222;-73
2023/07/01 00:17:25;;;;;;;13.90;12.55;;;20.60;99.90;;;;;;4996035;28;20227;-71
2023/07/01 00:20:14;;;;;;;14.52;12.82;;;20.60;99.90;;;;;;4979424;28;20309;-73
2023/07/01 00:23:03;;;;;;;14.43;13.00;;;20.60;99.90;;;;;;4984916;28;20905;-73
2023/07/01 00:25:52;;;;;;;13.73;12.32;;;20.60;99.90;;;;;;4982818;28;20984;-73
2023/07/01 00:28:41;;;;;;;14.18;12.88;;;20.60;99.90;;;;;;4972533;28;20229;-73
2023/07/01 00:31:31;;;;;;;14.88;13.30;;;20.40;99.90;;;;;;4963706;28;20350;-73
2023/07/01 00:34:20;;;;;;;16.10;13.15;;;20.40;99.90;;;;;;4973870;28;20231;-72
2023/07/01 00:37:09;;;;;;;15.43;13.82;;;20.50;99.90;;;;;;4996574;28;20730;-74
2023/07/01 00:39:58;;;;;;;14.63;13.23;;;20.40;99.90;;;;;;4977651;28;20230;-73
2023/07/01 00:42:47;;;;;;;14.73;13.35;;;20.40;99.90;;;;;;4977689;28;20260;-73
2023/07/01 00:45:36;;;;;;;15.20;12.10;;;20.40;99.90;;;;;;4995031;28;20231;-73
2023/07/01 00:48:27;;;;;;;13.82;12.52;;;20.50;99.90;;;;;;4984469;28;20223;-73
2023/07/01 00:51:16;;;;;;;13.93;12.50;;;20.40;99.90;;;;;;4997362;28;20304;-72
2023/07/01 00:54:05;;;;;;;13.98;12.68;;;20.50;99.90;;;;;;4995339;28;20226;-74
2023/07/01 00:56:55;;;;;;;13.50;12.10;;;20.40;99.90;;;;;;4983599;28;20223;-73
2023/07/01 00:59:44;;;;;;;12.65;11.35;;;20.40;99.90;;;;;;4993082;28;20251;-72
2023/07/01 01:02:40;;;;;;;13.15;11.80;;;20.30;99.90;;;;;;4978509;28;20227;-72
2023/07/01 01:05:36;;;;;;;12.25;11.15;;;20.30;99.90;;;;;;4985533;28;20215;-73
2023/07/01 01:08:30;;;;;;;12.93;11.25;;;20.30;99.90;;;;;;4980663;28;20231;-73
2023/07/01 01:11:20;;;;;;;12.90;11.60;;;20.30;99.90;;;;;;4978151;28;20230;-73
2023/07/01 01:14:12;;;;;;;13.00;11.65;;;20.40;99.90;;;;;;4982801;28;20242;-72
2023/07/01 01:17:04;;;;;;;12.98;11.68;;;20.40;99.90;;;;;;4986074;28;20222;-72
2023/07/01 01:19:58;;;;;;;12.05;10.85;;;20.40;99.90;;;;;;4998532;28;20382;-72
2023/07/01 01:22:52;;;;;;;14.05;11.55;;;20.40;99.90;;;;;;4984963;28;20234;-72
2023/07/01 01:25:47;;;;;;;12.13;10.90;;;20.40;99.90;;;;;;4976199;28;20238;-72
2023/07/01 01:28:38;;;;;;;12.23;11.10;;;20.20;99.90;;;;;;4979368;28;20326;-72
2023/07/01 01:31:28;;;;;;;12.13;10.82;;;20.20;99.90;;;;;;4975282;28;20313;-73
2023/07/01 01:34:18;;;;;;;11.73;10.63;;;20.20;99.90;;;;;;4980278;28;20292;-71
2023/07/01 01:37:13;;;;;;;11.93;10.60;;;20.20;99.90;;;;;;4980981;28;20219;-72
2023/07/01 01:40:10;;;;;;;12.07;10.88;;;20.30;99.90;;;;;;4979781;28;20250;-72
2023/07/01 01:43:06;;;;;;;13.68;10.20;;;20.30;99.90;;;;;;4995881;28;20695;-72
2023/07/01 01:45:58;;;;;;;12.50;11.30;;;20.30;99.90;;;;;;4983515;28;20266;-72
2023/07/01 01:48:47;;;;;;;11.13;10.02;;;20.20;99.90;;;;;;4976334;28;20235;-72
2023/07/01 01:51:39;;;;;;;12.55;11.23;;;20.20;99.90;;;;;;4985068;28;20219;-72
2023/07/01 01:54:28;;;;;;;12.45;11.23;;;20.20;99.90;;;;;;4983555;28;20243;-72
2023/07/01 01:57:17;;;;;;;12.40;11.10;;;20.10;99.90;;;;;;4978932;28;20219;-72
2023/07/01 02:00:08;;;;;;;12.77;11.48;;;20.10;99.90;;;;;;4996657;28;20258;-72
2023/07/01 02:03:05;;;;;;;12.35;11.07;;;20.20;99.90;;;;;;4983198;28;20226;-72
2023/07/01 02:05:55;;;;;;;12.38;11.20;;;20.20;99.90;;;;;;4982514;28;20215;-72
2023/07/01 02:08:44;;;;;;;12.50;11.25;;;20.00;99.90;;;;;;4976039;28;20218;-72
2023/07/01 02:11:33;;;;;;;11.95;10.95;;;20.10;99.90;;;;;;4987622;28;20308;-72
2023/07/01 02:14:21;;;;;;;11.88;10.77;;;20.20;99.90;;;;;;4976546;28;20269;-72
2023/07/01 02:17:10;;;;;;;12.10;10.93;;;20.20;99.90;;;;;;4986358;28;20234;-72
2023/07/01 02:20:01;;;;;;;13.10;11.80;;;20.20;99.90;;;;;;4981642;28;20230;-72
2023/07/01 02:22:50;;;;;;;12.57;11.40;;;20.20;99.90;;;;;;4998981;28;20305;-72
2023/07/01 02:25:38;;;;;;;13.52;12.18;;;20.20;99.90;;;;;;4998398;28;20246;-72
2023/07/01 02:28:28;;;;;;;12.70;11.50;;;20.20;99.90;;;;;;4997436;28;20344;-72
2023/07/01 02:31:18;;;;;;;14.27;12.27;;;20.20;99.90;;;;;;4985198;28;20232;-72
2023/07/01 02:34:07;;;;;;;13.50;12.20;;;20.20;99.90;;;;;;4978876;28;20259;-73
2023/07/01 02:36:58;;;;;;;13.32;12.02;;;20.20;99.90;;;;;;4996510;28;20265;-72
2023/07/01 02:39:47;;;;;;;14.35;12.95;;;20.20;99.90;;;;;;4977885;28;20795;-72
2023/07/01 02:42:36;;;;;;;14.32;12.93;;;20.10;99.90;;;;;;4972640;28;20218;-73
2023/07/01 02:45:27;;;;;;;14.50;13.10;;;20.20;99.90;;;;;;4986936;28;20235;-72
2023/07/01 02:48:16;;;;;;;15.25;13.68;;;20.30;99.90;;;;;;4976618;28;20912;-73
2023/07/01 02:51:06;;;;;;;15.00;13.48;;;20.20;99.90;;;;;;4981529;28;20309;-72
2023/07/01 02:53:57;;;;;;;15.32;13.93;;;20.20;99.90;;;;;;4983262;28;20547;-72
2023/07/01 02:56:45;;;;;;;15.10;13.50;;;20.20;99.90;;;;;;4982284;28;20239;-74
2023/07/01 02:59:34;;;;;;;15.95;14.43;;;20.20;99.90;;;;;;4973900;28;20254;-72
2023/07/01 03:02:23;;;;;;;14.68;13.38;;;20.20;99.90;;;;;;4996045;28;20725;-73
2023/07/01 03:05:12;;;;;;;17.08;14.77;;;20.20;99.90;;;;;;4975714;28;20262;-72
2023/07/01 03:08:01;;;;;;;16.30;14.68;;;20.10;99.90;;;;;;4982435;28;20555;-73
2023/07/01 03:10:52;;;;;;;16.60;15.00;;;20.20;99.90;;;;;;4973922;28;20240;-72
2023/07/01 03:13:42;;;;;;;16.58;14.98;;;20.20;99.90;;;;;;4983250;28;20231;-73
2023/07/01 03:16:31;;;;;;;16.63;14.68;;;20.20;99.90;;;;;;4961057;28;20239;-72
2023/07/01 03:19:20;;;;;;;17.55;15.77;;;20.10;99.90;;;;;;4976330;28;20227;-71
2023/07/01 03:22:09;;;;;;;19.08;17.10;;;20.20;99.90;;;;;;4993055;28;20230;-71
2023/07/01 03:24:58;;;;;;;18.52;16.73;;;20.10;99.90;;;;;;4981996;28;20226;-72
2023/07/01 03:27:48;;;;;;;18.25;16.40;;;20.00;99.90;;;;;;4978927;28;20230;-73
2023/07/01 03:30:37;;;;;;;19.17;16.98;;;20.10;99.90;;;;;;4978976;28;20230;-74
2023/07/01 03:33:26;;;;;;;18.23;16.30;;;20.20;99.90;;;;;;4979136;28;20231;-72
2023/07/01 03:36:15;;;;;;;17.63;15.98;;;20.20;99.90;;;;;;4980185;28;20223;-71
2023/07/01 03:39:04;;;;;;;18.45;16.60;;;20.10;99.90;;;;;;4980075;28;20234;-74
2023/07/01 03:41:53;;;;;;;20.40;17.33;;;20.20;99.90;;;;;;4994520;28;20773;-73
2023/07/01 03:44:43;;;;;;;19.30;17.33;;;20.20;99.90;;;;;;4965575;28;20295;-72
2023/07/01 03:47:32;;;;;;;18.38;16.58;;;20.30;99.90;;;;;;4970961;28;20226;-73
2023/07/01 03:50:22;;;;;;;18.50;16.75;;;20.30;99.90;;;;;;4975617;28;20226;-72
2023/07/01 03:53:11;;;;;;;18.58;16.80;;;20.30;99.90;;;;;;4980938;28;20736;-72
2023/07/01 03:56:00;;;;;;;19.52;17.52;;;20.20;99.90;;;;;;4980919;28;20227;-71
2023/07/01 03:58:49;;;;;;;18.98;17.17;;;20.30;99.90;;;;;;4979488;28;20385;-72
2023/07/01 04:01:39;;;;;;;19.55;17.55;;;20.20;99.90;;;;;;4976902;28;20273;-72
2023/07/01 04:04:28;;;;;;;18.73;16.98;;;20.30;99.90;;;;;;4984060;28;20292;-73
2023/07/01 04:07:21;;;;;;;19.02;16.38;;;20.30;99.90;;;;;;5010169;28;20226;-73
2023/07/01 04:10:11;;;;;;;20.20;18.10;;;20.40;99.90;;;;;;4982747;28;20238;-73
2023/07/01 04:13:01;;;;;;;18.35;16.58;;;20.50;99.90;;;;;;4983724;28;20223;-73
2023/07/01 04:15:49;;;;;;;19.55;17.30;;;20.60;99.90;;;;;;4999395;28;20231;-72
2023/07/01 04:18:40;;;;;;;18.98;17.25;;;20.50;99.90;;;;;;4983013;28;20234;-73
2023/07/01 04:21:28;;;;;;;19.23;17.33;;;20.60;99.90;;;;;;4998501;28;20242;-72
2023/07/01 04:24:18;;;;;;;19.38;17.35;;;20.70;99.90;;;;;;4985278;28;20231;-72
2023/07/01 04:27:07;;;;;;;22.98;17.52;;;20.80;99.90;;;;;;4986190;28;20309;-73
2023/07/01 04:29:56;;;;;;;20.92;16.88;;;20.80;99.90;;;;;;4986311;28;20292;-72
2023/07/01 04:32:44;;;;;;;19.42;17.42;;;20.80;99.90;;;;;;4983837;28;20227;-72
2023/07/01 04:35:35;;;;;;;18.88;17.08;;;20.80;99.90;;;;;;4981804;28;20230;-72
2023/07/01 04:38:24;;;;;;;21.85;17.50;;;20.70;99.90;;;;;;4974072;28;20227;-72
2023/07/01 04:41:13;;;;;;;19.55;17.65;;;20.70;99.90;;;;;;4981231;28;20238;-73
2023/07/01 04:44:03;;;;;;;18.98;17.15;;;20.70;99.90;;;;;;4986295;28;20223;-73
2023/07/01 04:46:52;;;;;;;19.58;17.63;;;20.60;99.90;;;;;;4986363;28;20239;-73
2023/07/01 04:49:41;;;;;;;18.08;16.25;;;20.70;99.90;;;;;;4981591;28;20254;-73
2023/07/01 04:52:31;;;;;;;18.63;16.80;;;20.60;99.90;;;;;;4970799;28;20227;-73
2023/07/01 04:55:20;;;;;;;18.25;16.15;;;20.70;99.90;;;;;;4984463;28;20587;-73
2023/07/01 04:58:09;;;;;;;18.60;16.25;;;20.70;99.90;;;;;;4981060;28;20246;-73
2023/07/01 05:00:57;;;;;;;17.70;15.82;;;20.70;99.90;;;;;;4986231;28;20242;-71
2023/07/01 05:03:46;;;;;;;17.20;15.45;;;20.80;99.90;;;;;;4990525;28;20223;-73
2023/07/01 05:06:36;;;;;;;17.30;15.50;;;20.90;99.90;;;;;;4985125;28;20350;-72
2023/07/01 05:09:26;;;;;;;17.23;15.43;;;20.80;99.90;;;;;;4978373;28;20242;-69
2023/07/01 05:12:15;;;;;;;17.95;16.05;;;20.80;99.90;;;;;;4985717;28;20610;-70
2023/07/01 05:15:05;;;;;;;18.67;16.88;;;20.80;99.90;;;;;;4974238;28;20212;-72
2023/07/01 05:17:54;;;;;;;18.73;16.63;;;20.80;99.90;;;;;;4982368;28;20219;-73
2023/07/01 05:20:42;;;;;;;17.23;15.15;;;20.80;99.90;;;;;;4972865;28;20230;-72
2023/07/01 05:23:33;;;;;;;17.10;15.30;;;20.70;99.90;;;;;;4979188;28;20236;-72
2023/07/01 05:26:23;;;;;;;17.00;15.20;;;20.80;99.90;;;;;;4983419;28;20242;-72
2023/07/01 05:29:12;;;;;;;16.95;15.15;;;20.80;99.90;;;;;;4975970;28;20233;-72
2023/07/01 05:32:02;;;;;;;16.02;14.43;;;20.90;99.90;;;;;;4974947;28;20226;-72
2023/07/01 05:34:51;;;;;;;15.20;13.48;;;20.90;99.90;;;;;;4981960;28;20291;-73
2023/07/01 05:37:40;;;;;;;14.25;12.77;;;20.80;99.90;;;;;;4971241;28;20710;-72
2023/07/01 05:40:29;;;;;;;14.13;12.73;;;20.80;99.90;;;;;;4965924;28;20236;-72
2023/07/01 05:43:20;;;;;;;14.57;12.73;;;20.80;99.90;;;;;;4972394;28;20231;-72
2023/07/01 05:46:09;;;;;;;14.10;12.70;;;20.90;99.90;;;;;;4981328;28;20257;-72
2023/07/01 05:48:57;;;;;;;15.68;13.18;;;20.80;99.90;;;;;;4965232;28;20228;-72
2023/07/01 05:51:47;;;;;;;13.88;12.57;;;20.70;99.90;;;;;;4979256;28;20227;-73
2023/07/01 05:54:35;;;;;;;13.18;11.88;;;20.70;99.90;;;;;;4971478;28;20587;-72
2023/07/01 05:57:24;;;;;;;14.10;12.70;;;21.00;99.90;;;;;;4964414;28;20897;-73
2023/07/01 06:00:19;;;;;;;13.63;12.23;;;21.20;99.90;;;;;;4991594;28;20442;-72
2023/07/01 06:03:11;;;;;;;13.23;11.70;;;21.40;99.90;;;;;;4979490;28;20234;-73
2023/07/01 06:06:00;;;;;;;13.55;12.18;;;21.30;99.90;;;;;;4983113;28;20902;-72
2023/07/01 06:08:49;;;;;;;14.73;12.45;;;21.30;99.90;;;;;;4977445;28;20222;-73
2023/07/01 06:11:38;;;;;;;14.60;13.10;;;21.50;99.90;;;;;;4982961;28;20238;-74
2023/07/01 06:14:27;;;;;;;17.38;13.07;;;21.60;99.90;;;;;;4978859;28;20329;-73
2023/07/01 06:17:17;;;;;;;14.20;12.80;;;21.60;99.90;;;;;;4974818;28;20227;-72
2023/07/01 06:20:07;;;;;;;14.38;12.98;;;21.60;99.90;;;;;;4983284;28;20226;-72
2023/07/01 06:22:56;;;;;;;15.18;12.02;;;21.40;99.90;;;;;;4995948;28;20229;-71
2023/07/01 06:25:44;;;;;;;14.30;12.48;;;21.20;99.90;;;;;;4964835;28;20243;-73
2023/07/01 06:28:33;;;;;;;15.35;13.05;;;21.30;99.90;;;;;;4977335;28;20365;-73
2023/07/01 06:31:22;;;;;;;15.02;13.52;;;21.30;99.90;;;;;;4984451;28;20234;-73
2023/07/01 06:34:15;;;;;;;14.82;12.85;;;21.40;99.90;;;;;;4975118;28;20274;-73
2023/07/01 06:37:04;;;;;;;14.18;12.77;;;21.40;99.90;;;;;;4981633;28;20234;-73
2023/07/01 06:39:53;;;;;;;14.35;12.25;;;21.30;99.90;;;;;;4983441;28;20235;-73
2023/07/01 06:42:42;;;;;;;16.50;13.38;;;21.20;99.90;;;;;;4987929;28;20282;-73
2023/07/01 06:45:32;;;;;;;13.45;12.05;;;21.30;99.90;;;;;;4985968;28;20311;-73
2023/07/01 06:48:22;;;;;;;14.65;12.45;;;21.30;99.90;;;;;;4981619;28;20313;-73
2023/07/01 06:51:12;;;;;;;14.50;12.68;;;21.20;99.90;;;;;;4996366;28;20254;-73
2023/07/01 06:54:02;;;;;;;16.10;12.60;;;21.30;99.90;;;;;;4967194;28;20227;-73
2023/07/01 06:56:50;;;;;;;15.15;12.98;;;21.20;99.90;;;;;;4971937;28;20239;-73
2023/07/01 06:59:39;;;;;;;14.60;12.50;;;21.00;99.90;;;;;;4969504;28;20235;-74
2023/07/01 07:02:28;;;;;;;14.90;12.32;;;21.10;99.90;;;;;;4975466;28;20752;-74
2023/07/01 07:05:17;;;;;;;13.30;11.57;;;21.20;99.90;;;;;;4981455;28;20307;-72
2023/07/01 07:08:07;;;;;;;14.27;12.40;;;21.30;99.90;;;;;;4974523;28;20902;-72
2023/07/01 07:10:56;;;;;;;14.20;11.60;;;21.50;99.90;;;;;;4983443;28;20215;-73
2023/07/01 07:13:45;;;;;;;13.95;11.32;;;21.60;99.90;;;;;;4978433;28;20241;-74
2023/07/01 07:16:34;;;;;;;13.18;11.77;;;21.60;99.90;;;;;;4976770;28;20222;-71
2023/07/01 07:19:23;;;;;;;14.10;12.52;;;21.90;99.90;;;;;;4981988;28;20226;-75
2023/07/01 07:22:12;;;;;;;17.45;12.70;;;22.10;99.90;;;;;;4982697;28;20215;-74
2023/07/01 07:25:02;;;;;;;14.05;11.93;;;22.10;99.90;;;;;;4982308;28;20726;-73
2023/07/01 07:27:51;;;;;;;14.38;11.63;;;22.00;99.90;;;;;;4969363;28;20235;-73
2023/07/01 07:30:40;;;;;;;16.25;11.00;;;21.90;99.90;;;;;;4978485;28;20798;-73
2023/07/01 07:33:29;;;;;;;12.68;10.80;;;21.80;99.90;;;;;;4988431;28;20230;-73
2023/07/01 07:36:18;;;;;;;14.90;11.18;;;21.80;99.90;;;;;;5000117;28;20812;-73
2023/07/01 07:39:08;;;;;;;12.60;10.65;;;21.80;99.90;;;;;;4987869;28;20230;-72
2023/07/01 07:41:58;;;;;;;14.18;10.48;;;21.80;99.90;;;;;;4987397;28;20250;-72
2023/07/01 07:44:47;;;;;;;13.05;11.13;;;22.00;99.90;;;;;;4978802;28;20238;-73
2023/07/01 07:47:36;;;;;;;13.82;10.20;;;22.30;99.90;;;;;;4975981;28;20267;-73
2023/07/01 07:50:25;;;;;;;13.38;10.70;;;22.50;99.90;;;;;;4985306;28;20269;-74
2023/07/01 07:53:15;;;;;;;12.43;10.82;;;22.80;99.90;;;;;;4987489;28;20415;-74
2023/07/01 07:56:04;;;;;;;12.27;9.98;;;23.10;99.90;;;;;;4987499;28;20266;-73
2023/07/01 07:58:54;;;;;;;14.68;10.38;;;23.10;99.90;;;;;;4979823;28;20325;-73
2023/07/01 08:01:43;;;;;;;14.20;10.32;;;23.00;99.90;;;;;;4976886;28;20722;-72
2023/07/01 08:04:32;;;;;;;14.15;10.18;;;22.80;99.90;;;;;;4981120;28;20223;-73
2023/07/01 08:07:22;;;;;;;16.60;11.65;;;22.80;99.90;;;;;;4991217;28;20245;-72
2023/07/01 08:10:11;;;;;;;14.15;11.55;;;22.80;99.90;;;;;;4993799;28;20313;-73
2023/07/01 08:13:00;;;;;;;14.30;11.05;;;22.80;99.90;;;;;;4976488;28;20231;-73
2023/07/01 08:15:50;;;;;;;15.13;11.27;;;22.80;99.90;;;;;;4983791;28;20278;-73
2023/07/01 08:18:39;;;;;;;15.10;11.68;;;22.80;99.90;;;;;;4979581;28;20765;-73
2023/07/01 08:21:28;;;;;;;15.10;11.38;;;22.80;99.90;;;;;;4991590;28;20227;-72
2023/07/01 08:24:17;;;;;;;14.77;11.48;;;23.10;99.90;;;;;;4972010;28;20795;-72
2023/07/01 08:27:07;;;;;;;14.70;11.57;;;24.40;99.90;;;;;;4982314;28;20219;-73
2023/07/01 08:29:55;;;;;;;16.80;12.43;;;24.20;99.90;;;;;;4980353;28;20769;-74
2023/07/01 08:32:46;;;;;;;17.35;13.20;;;23.80;99.90;;;;;;4985265;28;20641;-73
2023/07/01 08:35:35;;;;;;;16.98;12.20;;;23.50;99.90;;;;;;4985634;28;20713;-73
2023/07/01 08:38:23;;;;;;;14.63;12.02;;;23.30;99.90;;;;;;4983189;28;20230;-72
2023/07/01 08:41:15;;;;;;;17.17;12.98;;;23.10;99.90;;;;;;4984553;28;20230;-74
2023/07/01 08:44:06;;;;;;;20.02;15.35;;;23.20;99.90;;;;;;4968190;28;20254;-74
2023/07/01 08:46:56;;;;;;;19.13;13.50;;;23.80;99.90;;;;;;4979923;28;20235;-73
2023/07/01 08:49:49;;;;;;;16.88;12.88;;;23.70;99.90;;;;;;4992418;28;20234;-73
2023/07/01 08:52:42;;;;;;;17.23;13.02;;;23.60;99.90;;;;;;4992720;28;20222;-73
2023/07/01 08:55:32;;;;;;;16.58;13.05;;;23.40;99.90;;;;;;4978198;28;20219;-74
2023/07/01 08:58:21;;;;;;;16.55;12.75;;;23.40;99.90;;;;;;4981582;28;20231;-72
2023/07/01 09:01:10;;;;;;;17.38;12.65;;;23.40;99.90;;;;;;4984480;28;20324;-73
2023/07/01 09:04:02;;;;;;;14.25;11.93;;;23.60;99.90;;;;;;4989613;28;20238;-71
2023/07/01 09:06:52;;;;;;;15.20;11.73;;;23.90;99.90;;;;;;4984704;28;20397;-70
2023/07/01 09:09:41;;;;;;;16.85;11.88;;;23.80;99.90;;;;;;4993817;28;20230;-70
2023/07/01 09:12:30;;;;;;;13.32;11.88;;;23.80;99.90;;;;;;4981968;28;20226;-73
2023/07/01 09:15:19;;;;;;;17.33;12.68;;;23.90;99.90;;;;;;4978555;28;20223;-73
2023/07/01 09:18:20;;;;;;;15.20;12.48;;;23.90;99.90;;;;;;4985779;28;20273;-73
2023/07/01 09:21:18;;;;;;;15.60;12.55;;;23.80;99.90;;;;;;4982264;28;20226;-74
2023/07/01 09:24:12;;;;;;;15.45;11.95;;;23.70;99.90;;;;;;4985049;28;20235;-73
2023/07/01 09:27:02;;;;;;;15.85;12.52;;;23.70;99.90;;;;;;4995873;28;20667;-72
2023/07/01 09:29:52;;;;;;;15.25;12.73;;;23.70;99.90;;;;;;4982363;28;20226;-73
2023/07/01 09:32:41;;;;;;;17.13;12.65;;;23.40;99.90;;;;;;4991319;28;20245;-73
2023/07/01 09:35:41;;;;;;;14.95;13.32;;;23.40;99.90;;;;;;4983915;28;21028;-73
2023/07/01 09:38:29;;;;;;;17.02;13.00;;;23.20;99.90;;;;;;4997640;28;20230;-73
2023/07/01 09:41:26;;;;;;;14.77;12.93;;;23.20;99.90;;;;;;4968622;28;20785;-73
2023/07/01 09:44:18;;;;;;;16.20;13.00;;;23.30;99.90;;;;;;4980726;28;20223;-73
2023/07/01 09:47:09;;;;;;;15.68;12.93;;;23.50;99.90;;;;;;4980996;28;20227;-73
2023/07/01 09:49:58;;;;;;;15.25;12.55;;;23.70;99.90;;;;;;4978850;28;20235;-72
2023/07/01 09:52:48;;;;;;;16.83;12.88;;;23.70;99.90;;;;;;4977679;28;20223;-73
2023/07/01 09:55:37;;;;;;;16.45;12.07;;;24.40;99.90;;;;;;4970565;28;20223;-73
2023/07/01 09:58:29;;;;;;;15.45;12.02;;;24.70;99.90;;;;;;4984596;28;20223;-73
2023/07/01 10:01:19;;;;;;;16.23;12.57;;;24.70;99.90;;;;;;4984097;28;20226;-74
2023/07/01 10:04:09;;;;;;;15.60;12.23;;;24.60;99.90;;;;;;4975580;28;20239;-75
2023/07/01 10:06:58;;;;;;;13.93;11.63;;;24.20;99.90;;;;;;4991532;28;20222;-74
2023/07/01 10:09:48;;;;;;;15.45;12.82;;;24.20;99.90;;;;;;4974592;28;20230;-75
2023/07/01 10:12:37;;;;;;;15.02;12.35;;;24.20;99.90;;;;;;4975092;28;20796;-75
2023/07/01 10:15:32;;;;;;;15.13;12.00;;;24.40;99.90;;;;;;4982464;28;20230;-73
2023/07/01 10:18:22;;;;;;;14.07;11.60;;;24.40;99.90;;;;;;4979677;28;20215;-73
2023/07/01 10:21:29;;;;;;;14.60;11.63;;;24.50;99.90;;;;;;4977215;28;20242;-75
2023/07/01 10:24:37;;;;;;;15.50;12.50;;;25.10;99.90;;;;;;4982874;28;20262;-74
2023/07/01 10:28:15;;;;;;;13.50;11.15;;;26.00;99.90;;;;;;4991464;28;20226;-74
2023/07/01 10:31:12;;;;;;;12.85;11.05;;;25.40;99.90;;;;;;4993286;28;20211;-75
2023/07/01 10:34:02;;;;;;;15.25;11.50;;;25.10;99.90;;;;;;4987727;28;20249;-73
2023/07/01 10:37:12;;;;;;;15.45;11.80;;;24.60;99.90;;;;;;4981840;28;20710;-72
2023/07/01 10:40:07;;;;;;;16.40;12.30;;;24.10;99.90;;;;;;4972157;28;20376;-73
2023/07/01 10:43:22;;;;;;;15.30;11.88;;;23.70;99.90;;;;;;4971894;28;20229;-73
2023/07/01 10:46:20;;;;;;;18.42;12.23;;;23.40;99.90;;;;;;4985032;28;20369;-75
2023/07/01 10:49:09;;;;;;;16.52;11.82;;;23.40;99.90;;;;;;4977808;28;20246;-74
2023/07/01 10:52:06;;;;;;;15.95;12.18;;;26.90;99.90;;;;;;4993901;28;20231;-72
2023/07/01 10:54:56;;;;;;;14.32;11.38;;;31.10;99.90;;;;;;4971042;28;20373;-71
2023/07/01 10:58:18;;;;;;;11.80;10.20;;;33.50;99.90;;;;;;4984530;28;20297;-73
2023/07/01 11:01:07;;;;;;;14.38;10.98;;;35.60;99.90;;;;;;4973241;28;20230;-71
2023/07/01 11:03:58;;;;;;;14.13;10.95;;;35.60;99.90;;;;;;4994319;28;20230;-74
2023/07/01 11:06:49;;;;;;;12.90;11.02;;;36.60;96.90;;;;;;4973944;28;20234;-73
2023/07/01 11:09:37;;;;;;;13.13;11.27;;;36.80;94.70;;;;;;4973557;28;20230;-73
2023/07/01 11:12:27;;;;;;;17.48;11.13;;;37.50;92.20;;;;;;4971708;28;20328;-73
2023/07/01 11:15:19;;;;;;;13.52;10.65;;;38.20;90.20;;;;;;4985864;28;20439;-73
2023/07/01 11:18:08;;;;;;;13.48;10.32;;;38.40;90.00;;;;;;4986728;28;20222;-74
2023/07/01 11:20:58;;;;;;;10.90;9.75;;;37.70;87.20;;;;;;4984212;28;20709;-73
2023/07/01 11:23:53;;;;;;;11.85;10.57;;;37.40;83.30;;;;;;4982924;28;20241;-74
2023/07/01 11:26:43;;;;;;;10.75;9.65;;;37.10;83.30;;;;;;4981418;28;20309;-73
2023/07/01 11:29:32;;;;;;;12.43;9.52;;;37.30;82.50;;;;;;4973981;28;20377;-73
2023/07/01 11:32:21;;;;;;;10.50;9.23;;;37.60;79.20;;;;;;4975594;28;20211;-73
2023/07/01 11:35:10;;;;;;;10.52;9.05;;;38.30;76.80;;;;;;4991287;28;20234;-74
2023/07/01 11:38:00;;;;;;;11.18;9.50;;;37.70;76.50;;;;;;4985013;28;20329;-73
2023/07/01 11:40:50;;;;;;;10.93;9.88;;;36.50;79.00;;;;;;4987104;28;20227;-73
2023/07/01 11:43:40;;;;;;;11.55;9.55;;;33.30;82.30;;;;;;4977092;28;20303;-74
2023/07/01 11:46:33;;;;;;;11.35;9.55;;;34.90;88.40;;;;;;4984282;28;20299;-74
2023/07/01 11:49:25;;;;;;;10.05;9.05;;;38.50;80.50;;;;;;4988902;28;20681;-73
2023/07/01 11:52:23;;;;;;;12.75;9.50;;;40.90;77.40;;;;;;4995603;28;20248;-73
2023/07/01 11:55:33;;;;;;;11.00;9.90;;;40.70;74.70;;;;;;4986827;28;20222;-74
2023/07/01 11:58:29;;;;;;;12.23;9.82;;;41.40;72.50;;;;;;4982157;28;20241;-74
2023/07/01 12:01:25;;;;;;;10.52;9.43;;;35.50;75.50;;;;;;4985049;28;20233;-74
2023/07/01 12:04:16;;;;;;;13.13;10.20;;;33.00;81.50;;;;;;4991856;28;20234;-73
2023/07/01 12:07:10;;;;;;;10.88;9.77;;;33.60;85.00;;;;;;4987458;28;20759;-74
2023/07/01 12:10:20;;;;;;;13.05;10.10;;;32.90;83.20;;;;;;4983579;28;20269;-73
2023/07/01 12:13:28;;;;;;;12.00;9.98;;;31.30;85.30;;;;;;4960462;28;20564;-74
2023/07/01 12:16:17;;;;;;;13.55;10.48;;;31.30;89.90;;;;;;4983823;28;20768;-73
2023/07/01 12:19:06;;;;;;;11.40;10.20;;;31.10;88.30;;;;;;4979518;28;20725;-72
2023/07/01 12:21:56;;;;;;;11.65;10.45;;;29.80;93.10;;;;;;4986088;28;20236;-72
2023/07/01 12:24:45;;;;;;;12.30;9.43;;;29.20;95.10;;;;;;4980398;28;20255;-72
2023/07/01 12:27:36;;;;;;;10.70;9.60;;;33.50;93.00;;;;;;4971507;28;20240;-73
2023/07/01 12:30:24;;;;;;;10.80;9.70;;;33.90;87.60;;;;;;4996024;28;20352;-73
2023/07/01 12:33:13;;;;;;;11.95;9.63;;;32.00;91.00;;;;;;4980775;28;20234;-72
2023/07/01 12:36:03;;;;;;;11.00;9.85;;;30.30;91.90;;;;;;4985727;28;20234;-72
2023/07/01 12:38:52;;;;;;;11.27;10.18;;;36.60;87.40;;;;;;4984532;28;20806;-73
2023/07/01 12:41:43;;;;;;;10.20;9.20;;;37.30;80.10;;;;;;4975449;28;20708;-73
2023/07/01 12:44:33;;;;;;;11.52;9.75;;;36.10;79.00;;;;;;4995731;28;20712;-73
2023/07/01 12:47:23;;;;;;;10.90;9.70;;;33.30;83.60;;;;;;4981642;28;20226;-75
2023/07/01 12:50:13;;;;;;;9.90;9.00;;;38.10;81.10;;;;;;4993961;28;20231;-74
2023/07/01 12:53:02;;;;;;;9.90;8.90;;;39.50;75.70;;;;;;4998847;28;20226;-73
2023/07/01 12:55:51;;;;;;;9.35;8.25;;;41.10;71.90;;;;;;4980403;28;20218;-73
2023/07/01 12:58:41;;;;;;;9.73;8.75;;;40.50;69.00;;;;;;4996184;28;20233;-72
2023/07/01 13:01:31;;;;;;;11.10;9.07;;;35.70;73.40;;;;;;4984468;28;20241;-74
2023/07/01 13:04:20;;;;;;;10.25;9.25;;;32.80;81.10;;;;;;4991716;28;20231;-73
2023/07/01 13:07:17;;;;;;;9.60;8.23;;;31.30;82.70;;;;;;4993141;28;20230;-74
2023/07/01 13:10:10;;;;;;;9.50;8.50;;;30.50;85.50;;;;;;4976066;28;20289;-73
2023/07/01 13:13:00;;;;;;;9.93;8.90;;;30.00;89.30;;;;;;4986172;28;20222;-73
2023/07/01 13:15:49;;;;;;;11.55;8.98;;;29.50;91.00;;;;;;4974925;28;20277;-74
2023/07/01 13:18:43;;;;;;;10.55;8.25;;;28.70;91.10;;;;;;4977749;28;20708;-74
2023/07/01 13:21:38;;;;;;;11.40;8.88;;;28.40;92.50;;;;;;4996973;28;20261;-73
2023/07/01 13:24:27;;;;;;;9.82;8.82;;;28.30;93.30;;;;;;4993325;28;20231;-73
2023/07/01 13:27:15;;;;;;;9.35;8.30;;;28.50;92.10;;;;;;4983343;28;20237;-74
2023/07/01 13:30:07;;;;;;;11.18;8.45;;;28.30;93.40;;;;;;4983437;28;20238;-74
2023/07/01 13:32:56;;;;;;;11.27;9.07;;;28.20;93.00;;;;;;4991586;28;20780;-74
2023/07/01 13:35:46;;;;;;;11.35;9.43;;;28.00;93.50;;;;;;4979510;28;20824;-73
2023/07/01 13:38:40;;;;;;;10.15;8.55;;;27.90;93.80;;;;;;4982825;28;20237;-73
2023/07/01 13:41:29;;;;;;;12.55;8.02;;;27.80;94.00;;;;;;4992476;28;20341;-73
2023/07/01 13:44:20;;;;;;;9.68;8.55;;;27.70;93.90;;;;;;4983909;28;20256;-73
2023/07/01 13:47:11;;;;;;;10.55;8.57;;;27.60;94.60;;;;;;4988453;28;20990;-73
2023/07/01 13:50:01;;;;;;;8.48;7.57;;;27.60;94.90;;;;;;4975386;28;20777;-72
2023/07/01 13:52:54;;;;;;;8.57;7.65;;;27.50;95.40;;;;;;4984448;28;20235;-72
2023/07/01 13:55:51;;;;;;;9.63;8.00;;;27.40;95.30;;;;;;4991586;28;20229;-72
2023/07/01 13:58:45;;;;;;;9.45;7.95;;;27.10;95.50;;;;;;4981058;28;20230;-73
2023/07/01 14:01:37;;;;;;;10.43;8.07;;;27.00;95.20;;;;;;4975548;28;20229;-72
2023/07/01 14:04:27;;;;;;;11.68;7.43;;;26.90;96.20;;;;;;4970228;28;20235;-73
2023/07/01 14:07:17;;;;;;;10.32;7.47;;;27.10;96.40;;;;;;4975708;28;20238;-72
2023/07/01 14:10:18;;;;;;;8.18;7.30;;;27.10;96.30;;;;;;4972564;28;20478;-73
2023/07/01 14:13:10;;;;;;;9.55;7.50;;;27.30;98.20;;;;;;4994550;28;20304;-74
2023/07/01 14:15:59;;;;;;;11.18;8.55;;;27.20;96.90;;;;;;4982895;28;20756;-73
2023/07/01 14:18:49;;;;;;;12.07;7.72;;;27.00;95.00;;;;;;4998555;28;20737;-74
2023/07/01 14:21:41;;;;;;;9.07;7.90;;;26.90;97.60;;;;;;4982959;28;20750;-73
2023/07/01 14:24:37;;;;;;;10.63;8.10;;;26.80;95.80;;;;;;4982313;28;20835;-72
2023/07/01 14:27:27;;;;;;;9.77;7.20;;;26.70;96.40;;;;;;4960659;28;20243;-74
2023/07/01 14:30:49;;;;;;;8.73;7.60;;;26.60;97.70;;;;;;4965517;28;20235;-72